sensor_id;sensor_type;location;lat;lon;timestamp;pressure;altitude;pressure_sealevel;temperature;humidity
18755;BME280;35061;47.664;9.166;2022-07-06T00:02:12;102151.31;;;19.39;63.36
18755;BME280;35061;47.664;9.166;2022-07-06T00:04:40;102157.40;;;19.36;63.72
18755;BME280;35061;47.664;9.166;2022-07-06T00:07:08;102154.23;;;19.28;63.97
18755;BME280;35061;47.664;9.166;2022-07-06T00:09:35;102155.27;;;19.25;64.06
18755;BME280;35061;47.664;9.166;2022-07-06T00:12:03;102154.20;;;19.22;64.00
18755;BME280;35061;47.664;9.166;2022-07-06T00:14:34;102152.85;;;19.18;64.09
18755;BME280;35061;47.664;9.166;2022-07-06T00:17:02;102157.33;;;19.13;64.24
18755;BME280;35061;47.664;9.166;2022-07-06T00:19:30;102154.68;;;19.09;64.26
18755;BME280;35061;47.664;9.166;2022-07-06T00:21:58;102143.60;;;19.02;64.55
18755;BME280;35061;47.664;9.166;2022-07-06T00:24:26;102145.37;;;18.94;64.98
18755;BME280;35061;47.664;9.166;2022-07-06T00:26:53;102143.20;;;18.89;65.09
18755;BME280;35061;47.664;9.166;2022-07-06T00:29:21;102138.98;;;18.84;65.08
18755;BME280;35061;47.664;9.166;2022-07-06T00:31:49;102146.34;;;18.79;65.24
18755;BME280;35061;47.664;9.166;2022-07-06T00:34:16;102144.74;;;18.73;65.59
18755;BME280;35061;47.664;9.166;2022-07-06T00:36:44;102147.62;;;18.67;65.73
18755;BME280;35061;47.664;9.166;2022-07-06T00:39:12;102145.73;;;18.58;65.91
18755;BME280;35061;47.664;9.166;2022-07-06T00:41:40;102156.77;;;18.54;66.00
18755;BME280;35061;47.664;9.166;2022-07-06T00:44:08;102157.53;;;18.49;66.06
18755;BME280;35061;47.664;9.166;2022-07-06T00:46:36;102161.95;;;18.38;66.20
18755;BME280;35061;47.664;9.166;2022-07-06T00:49:04;102154.26;;;18.30;65.96
18755;BME280;35061;47.664;9.166;2022-07-06T00:51:35;102150.53;;;18.23;65.99
18755;BME280;35061;47.664;9.166;2022-07-06T00:54:04;102146.54;;;18.21;65.96
18755;BME280;35061;47.664;9.166;2022-07-06T00:56:34;102144.91;;;18.14;65.98
18755;BME280;35061;47.664;9.166;2022-07-06T00:59:02;102153.57;;;18.08;66.12
18755;BME280;35061;47.664;9.166;2022-07-06T01:01:30;102143.20;;;18.02;66.33
18755;BME280;35061;47.664;9.166;2022-07-06T01:03:58;102150.73;;;17.88;67.55
18755;BME280;35061;47.664;9.166;2022-07-06T01:06:26;102148.86;;;17.84;67.49
18755;BME280;35061;47.664;9.166;2022-07-06T01:08:54;102149.38;;;17.83;67.67
18755;BME280;35061;47.664;9.166;2022-07-06T01:11:21;102148.83;;;17.79;68.18
18755;BME280;35061;47.664;9.166;2022-07-06T01:13:50;102140.36;;;17.75;68.71
18755;BME280;35061;47.664;9.166;2022-07-06T01:16:18;102146.93;;;17.70;69.21
18755;BME280;35061;47.664;9.166;2022-07-06T01:18:46;102150.53;;;17.65;69.81
18755;BME280;35061;47.664;9.166;2022-07-06T01:21:15;102149.45;;;17.62;69.97
18755;BME280;35061;47.664;9.166;2022-07-06T01:23:44;102150.50;;;17.59;71.05
18755;BME280;35061;47.664;9.166;2022-07-06T01:26:15;102145.73;;;17.56;72.14
18755;BME280;35061;47.664;9.166;2022-07-06T01:28:43;102144.16;;;17.55;71.26
18755;BME280;35061;47.664;9.166;2022-07-06T01:31:26;102143.92;;;17.58;71.05
18755;BME280;35061;47.664;9.166;2022-07-06T01:33:56;102146.02;;;17.58;71.41
18755;BME280;35061;47.664;9.166;2022-07-06T01:36:24;102144.41;;;17.57;70.71
18755;BME280;35061;47.664;9.166;2022-07-06T01:38:54;102155.20;;;17.56;70.78
18755;BME280;35061;47.664;9.166;2022-07-06T01:41:22;102147.26;;;17.51;71.33
18755;BME280;35061;47.664;9.166;2022-07-06T01:43:49;102149.62;;;17.47;72.08
18755;BME280;35061;47.664;9.166;2022-07-06T01:46:17;102146.93;;;17.43;72.26
18755;BME280;35061;47.664;9.166;2022-07-06T01:48:47;102141.15;;;17.43;71.95
18755;BME280;35061;47.664;9.166;2022-07-06T01:51:15;102139.84;;;17.44;72.01
18755;BME280;35061;47.664;9.166;2022-07-06T01:53:43;102137.71;;;17.45;71.98
18755;BME280;35061;47.664;9.166;2022-07-06T01:56:12;102139.84;;;17.44;71.86
18755;BME280;35061;47.664;9.166;2022-07-06T01:58:40;102145.63;;;17.44;72.01
18755;BME280;35061;47.664;9.166;2022-07-06T02:01:16;102141.70;;;17.48;71.75
18755;BME280;35061;47.664;9.166;2022-07-06T02:03:45;102141.15;;;17.43;72.04
18755;BME280;35061;47.664;9.166;2022-07-06T02:06:13;102139.54;;;17.42;71.68
18755;BME280;35061;47.664;9.166;2022-07-06T02:08:42;102137.94;;;17.41;71.69
18755;BME280;35061;47.664;9.166;2022-07-06T02:11:10;102138.20;;;17.38;71.98
18755;BME280;35061;47.664;9.166;2022-07-06T02:13:39;102138.14;;;17.32;71.94
18755;BME280;35061;47.664;9.166;2022-07-06T02:16:07;102137.32;;;17.32;71.92
18755;BME280;35061;47.664;9.166;2022-07-06T02:18:34;102126.76;;;17.28;71.87
18755;BME280;35061;47.664;9.166;2022-07-06T02:21:04;102139.05;;;17.23;72.11
18755;BME280;35061;47.664;9.166;2022-07-06T02:23:32;102132.45;;;17.17;72.33
18755;BME280;35061;47.664;9.166;2022-07-06T02:26:00;102131.63;;;17.16;72.52
18755;BME280;35061;47.664;9.166;2022-07-06T02:28:28;102132.71;;;17.19;72.41
18755;BME280;35061;47.664;9.166;2022-07-06T02:30:56;102131.14;;;17.18;72.22
18755;BME280;35061;47.664;9.166;2022-07-06T02:33:23;102130.32;;;17.18;72.16
18755;BME280;35061;47.664;9.166;2022-07-06T02:35:51;102138.73;;;17.15;71.99
18755;BME280;35061;47.664;9.166;2022-07-06T02:38:19;102128.46;;;17.14;71.93
18755;BME280;35061;47.664;9.166;2022-07-06T02:40:47;102132.64;;;17.13;71.87
18755;BME280;35061;47.664;9.166;2022-07-06T02:43:15;102141.34;;;17.13;71.76
18755;BME280;35061;47.664;9.166;2022-07-06T02:45:43;102144.74;;;17.12;71.76
18755;BME280;35061;47.664;9.166;2022-07-06T02:48:10;102138.17;;;17.11;71.76
18755;BME280;35061;47.664;9.166;2022-07-06T02:50:38;102144.16;;;17.08;71.78
18755;BME280;35061;47.664;9.166;2022-07-06T02:53:06;102140.69;;;17.04;71.72
18755;BME280;35061;47.664;9.166;2022-07-06T02:55:34;102151.97;;;17.01;71.91
18755;BME280;35061;47.664;9.166;2022-07-06T02:58:02;102160.34;;;16.99;72.03
18755;BME280;35061;47.664;9.166;2022-07-06T03:00:30;102157.66;;;16.96;72.21
18755;BME280;35061;47.664;9.166;2022-07-06T03:02:58;102160.77;;;16.92;72.08
18755;BME280;35061;47.664;9.166;2022-07-06T03:05:26;102163.61;;;16.86;72.31
18755;BME280;35061;47.664;9.166;2022-07-06T03:07:53;102161.23;;;16.85;72.20
18755;BME280;35061;47.664;9.166;2022-07-06T03:10:21;102159.66;;;16.84;72.36
18755;BME280;35061;47.664;9.166;2022-07-06T03:12:49;102159.85;;;16.80;72.34
18755;BME280;35061;47.664;9.166;2022-07-06T03:15:16;102160.63;;;16.81;72.47
18755;BME280;35061;47.664;9.166;2022-07-06T03:17:44;102167.14;;;16.76;72.52
18755;BME280;35061;47.664;9.166;2022-07-06T03:20:12;102167.63;;;16.74;72.31
18755;BME280;35061;47.664;9.166;2022-07-06T03:22:41;102165.24;;;16.72;72.27
18755;BME280;35061;47.664;9.166;2022-07-06T03:25:09;102172.05;;;16.69;72.57
18755;BME280;35061;47.664;9.166;2022-07-06T03:27:36;102171.49;;;16.65;72.90
18755;BME280;35061;47.664;9.166;2022-07-06T03:30:04;102160.90;;;16.62;72.96
18755;BME280;35061;47.664;9.166;2022-07-06T03:32:39;102168.81;;;16.62;72.94
18755;BME280;35061;47.664;9.166;2022-07-06T03:35:07;102158.54;;;16.60;73.06
18755;BME280;35061;47.664;9.166;2022-07-06T03:37:35;102158.25;;;16.58;72.89
18755;BME280;35061;47.664;9.166;2022-07-06T03:40:03;102166.62;;;16.56;72.87
18755;BME280;35061;47.664;9.166;2022-07-06T03:42:31;102167.34;;;16.51;73.31
18755;BME280;35061;47.664;9.166;2022-07-06T03:44:59;102169.43;;;16.51;72.91
18755;BME280;35061;47.664;9.166;2022-07-06T03:47:26;102167.83;;;16.50;72.92
18755;BME280;35061;47.664;9.166;2022-07-06T03:49:54;102170.45;;;16.48;73.30
18755;BME280;35061;47.664;9.166;2022-07-06T03:52:22;102166.75;;;16.47;73.13
18755;BME280;35061;47.664;9.166;2022-07-06T03:54:50;102177.31;;;16.50;73.00
18755;BME280;35061;47.664;9.166;2022-07-06T03:57:17;102177.02;;;16.48;73.00
18755;BME280;35061;47.664;9.166;2022-07-06T03:59:45;102170.45;;;16.48;73.03
18755;BME280;35061;47.664;9.166;2022-07-06T04:02:13;102174.14;;;16.48;72.89
18755;BME280;35061;47.664;9.166;2022-07-06T04:04:41;102169.34;;;16.45;72.77
18755;BME280;35061;47.664;9.166;2022-07-06T04:07:08;102171.66;;;16.41;72.60
18755;BME280;35061;47.664;9.166;2022-07-06T04:09:36;102176.63;;;16.40;72.43
18755;BME280;35061;47.664;9.166;2022-07-06T04:12:04;102175.35;;;16.41;72.29
18755;BME280;35061;47.664;9.166;2022-07-06T04:14:32;102181.63;;;16.40;72.29
18755;BME280;35061;47.664;9.166;2022-07-06T04:17:00;102177.93;;;16.39;72.33
18755;BME280;35061;47.664;9.166;2022-07-06T04:19:47;102180.81;;;16.39;72.44
18755;BME280;35061;47.664;9.166;2022-07-06T04:22:15;102180.81;;;16.39;72.59
18755;BME280;35061;47.664;9.166;2022-07-06T04:24:43;102185.52;;;16.37;72.94
18755;BME280;35061;47.664;9.166;2022-07-06T04:27:11;102190.49;;;16.36;73.16
18755;BME280;35061;47.664;9.166;2022-07-06T04:29:38;102194.97;;;16.37;73.42
18755;BME280;35061;47.664;9.166;2022-07-06T04:32:06;102198.17;;;16.39;73.60
18755;BME280;35061;47.664;9.166;2022-07-06T04:34:35;102188.98;;;16.41;73.58
18755;BME280;35061;47.664;9.166;2022-07-06T04:37:03;102197.16;;;16.42;73.73
18755;BME280;35061;47.664;9.166;2022-07-06T04:39:30;102190.59;;;16.42;73.89
18755;BME280;35061;47.664;9.166;2022-07-06T04:41:59;102191.18;;;16.46;73.80
18755;BME280;35061;47.664;9.166;2022-07-06T04:44:27;102192.26;;;16.49;73.86
18755;BME280;35061;47.664;9.166;2022-07-06T04:46:55;102189.97;;;16.53;73.89
18755;BME280;35061;47.664;9.166;2022-07-06T04:49:22;102192.35;;;16.54;74.03
18755;BME280;35061;47.664;9.166;2022-07-06T04:51:50;102184.77;;;16.57;74.34
18755;BME280;35061;47.664;9.166;2022-07-06T04:54:18;102191.34;;;16.57;74.13
18755;BME280;35061;47.664;9.166;2022-07-06T04:56:46;102192.42;;;16.60;74.31
18755;BME280;35061;47.664;9.166;2022-07-06T04:59:15;102191.99;;;16.67;74.03
18755;BME280;35061;47.664;9.166;2022-07-06T05:01:42;102190.49;;;16.72;73.88
18755;BME280;35061;47.664;9.166;2022-07-06T05:04:10;102190.30;;;16.76;73.77
18755;BME280;35061;47.664;9.166;2022-07-06T05:06:38;102192.16;;;16.79;73.35
18755;BME280;35061;47.664;9.166;2022-07-06T05:09:06;102190.36;;;16.81;72.84
18755;BME280;35061;47.664;9.166;2022-07-06T05:11:34;102192.52;;;16.86;72.40
18755;BME280;35061;47.664;9.166;2022-07-06T05:14:01;102195.20;;;16.90;71.77
18755;BME280;35061;47.664;9.166;2022-07-06T05:16:29;102195.00;;;16.94;71.70
18755;BME280;35061;47.664;9.166;2022-07-06T05:18:57;102200.04;;;16.99;71.33
18755;BME280;35061;47.664;9.166;2022-07-06T05:21:25;102206.45;;;17.03;70.95
18755;BME280;35061;47.664;9.166;2022-07-06T05:23:53;102206.55;;;17.09;70.66
18755;BME280;35061;47.664;9.166;2022-07-06T05:26:20;102207.92;;;17.13;70.31
18755;BME280;35061;47.664;9.166;2022-07-06T05:28:48;102207.16;;;17.19;70.26
18755;BME280;35061;47.664;9.166;2022-07-06T05:31:16;102209.13;;;17.27;70.02
18755;BME280;35061;47.664;9.166;2022-07-06T05:33:44;102207.36;;;17.36;69.60
18755;BME280;35061;47.664;9.166;2022-07-06T05:36:11;102211.94;;;17.42;68.86
18755;BME280;35061;47.664;9.166;2022-07-06T05:38:39;102220.15;;;17.50;68.67
18755;BME280;35061;47.664;9.166;2022-07-06T05:41:07;102210.77;;;17.55;68.03
18755;BME280;35061;47.664;9.166;2022-07-06T05:43:36;102217.37;;;17.61;66.36
18755;BME280;35061;47.664;9.166;2022-07-06T05:46:04;102216.95;;;17.68;66.65
18755;BME280;35061;47.664;9.166;2022-07-06T05:48:32;102220.45;;;17.78;66.05
18755;BME280;35061;47.664;9.166;2022-07-06T05:51:18;102222.41;;;17.87;65.50
18755;BME280;35061;47.664;9.166;2022-07-06T05:53:46;102225.19;;;18.02;65.46
18755;BME280;35061;47.664;9.166;2022-07-06T05:56:15;102218.19;;;18.15;65.27
18755;BME280;35061;47.664;9.166;2022-07-06T05:58:43;102226.98;;;18.26;64.72
18755;BME280;35061;47.664;9.166;2022-07-06T06:01:10;102223.38;;;18.42;63.04
18755;BME280;35061;47.664;9.166;2022-07-06T06:03:38;102228.55;;;18.65;63.89
18755;BME280;35061;47.664;9.166;2022-07-06T06:06:06;102224.47;;;18.89;63.05
18755;BME280;35061;47.664;9.166;2022-07-06T06:08:34;102225.19;;;19.16;60.35
18755;BME280;35061;47.664;9.166;2022-07-06T06:11:02;102222.83;;;19.25;60.00
18755;BME280;35061;47.664;9.166;2022-07-06T06:13:36;102226.52;;;19.26;60.40
18755;BME280;35061;47.664;9.166;2022-07-06T06:16:04;102223.38;;;19.30;60.68
18755;BME280;35061;47.664;9.166;2022-07-06T06:18:32;102229.96;;;19.24;60.60
18755;BME280;35061;47.664;9.166;2022-07-06T06:21:08;102223.84;;;19.17;58.36
18755;BME280;35061;47.664;9.166;2022-07-06T06:23:35;102226.23;;;19.13;59.23
18755;BME280;35061;47.664;9.166;2022-07-06T06:26:03;102226.46;;;19.09;59.38
18755;BME280;35061;47.664;9.166;2022-07-06T06:28:31;102232.77;;;19.02;58.40
18755;BME280;35061;47.664;9.166;2022-07-06T06:30:59;102224.04;;;19.02;59.18
18755;BME280;35061;47.664;9.166;2022-07-06T06:33:27;102226.16;;;19.01;59.26
18755;BME280;35061;47.664;9.166;2022-07-06T06:35:54;102226.46;;;19.03;58.85
18755;BME280;35061;47.664;9.166;2022-07-06T06:38:23;102225.38;;;19.01;58.91
18755;BME280;35061;47.664;9.166;2022-07-06T06:40:55;102223.74;;;19.00;59.12
18755;BME280;35061;47.664;9.166;2022-07-06T06:43:23;102212.43;;;19.02;59.28
18755;BME280;35061;47.664;9.166;2022-07-06T06:45:50;102216.95;;;19.03;59.30
18755;BME280;35061;47.664;9.166;2022-07-06T06:48:18;102215.38;;;19.07;59.23
18755;BME280;35061;47.664;9.166;2022-07-06T06:50:46;102212.98;;;19.06;59.02
18755;BME280;35061;47.664;9.166;2022-07-06T06:53:14;102227.24;;;19.09;58.97
18755;BME280;35061;47.664;9.166;2022-07-06T06:55:42;102220.67;;;19.15;58.82
18755;BME280;35061;47.664;9.166;2022-07-06T06:58:09;102222.54;;;19.18;58.56
18755;BME280;35061;47.664;9.166;2022-07-06T07:00:37;102222.30;;;19.21;58.80
18755;BME280;35061;47.664;9.166;2022-07-06T07:03:05;102228.12;;;19.27;58.87
18755;BME280;35061;47.664;9.166;2022-07-06T07:05:33;102226.79;;;19.28;58.53
18755;BME280;35061;47.664;9.166;2022-07-06T07:08:00;102218.12;;;19.34;58.72
18755;BME280;35061;47.664;9.166;2022-07-06T07:10:32;102216.78;;;19.35;58.12
18755;BME280;35061;47.664;9.166;2022-07-06T07:13:00;102216.03;;;19.40;58.74
18755;BME280;35061;47.664;9.166;2022-07-06T07:15:28;102212.89;;;19.49;59.30
18755;BME280;35061;47.664;9.166;2022-07-06T07:17:56;102220.31;;;19.56;59.48
18755;BME280;35061;47.664;9.166;2022-07-06T07:20:24;102224.27;;;19.64;59.62
18755;BME280;35061;47.664;9.166;2022-07-06T07:22:52;102225.09;;;19.71;59.40
18755;BME280;35061;47.664;9.166;2022-07-06T07:25:20;102215.57;;;19.76;59.29
18755;BME280;35061;47.664;9.166;2022-07-06T07:27:48;102226.39;;;19.81;59.24
18755;BME280;35061;47.664;9.166;2022-07-06T07:30:16;102215.31;;;19.85;58.72
18755;BME280;35061;47.664;9.166;2022-07-06T07:32:43;102216.62;;;19.90;58.25
18755;BME280;35061;47.664;9.166;2022-07-06T07:35:12;102216.42;;;19.93;58.09
18755;BME280;35061;47.664;9.166;2022-07-06T07:37:39;102211.41;;;19.94;58.09
18755;BME280;35061;47.664;9.166;2022-07-06T07:40:08;102207.16;;;19.95;58.16
18755;BME280;35061;47.664;9.166;2022-07-06T07:42:36;102217.47;;;19.96;58.16
18755;BME280;35061;47.664;9.166;2022-07-06T07:45:07;102217.20;;;20.00;58.15
18755;BME280;35061;47.664;9.166;2022-07-06T07:47:35;102222.24;;;20.05;57.93
18755;BME280;35061;47.664;9.166;2022-07-06T07:50:03;102215.63;;;20.10;57.63
18755;BME280;35061;47.664;9.166;2022-07-06T07:52:31;102217.20;;;20.17;57.59
18755;BME280;35061;47.664;9.166;2022-07-06T07:54:59;102215.90;;;20.24;57.68
18755;BME280;35061;47.664;9.166;2022-07-06T07:57:47;102212.20;;;20.29;57.70
18755;BME280;35061;47.664;9.166;2022-07-06T08:00:15;102213.77;;;20.35;57.66
18755;BME280;35061;47.664;9.166;2022-07-06T08:02:43;102215.87;;;20.41;57.46
18755;BME280;35061;47.664;9.166;2022-07-06T08:05:11;102211.12;;;20.43;57.30
18755;BME280;35061;47.664;9.166;2022-07-06T08:07:44;102211.38;;;20.45;56.97
18755;BME280;35061;47.664;9.166;2022-07-06T08:10:12;102210.60;;;20.50;56.39
18755;BME280;35061;47.664;9.166;2022-07-06T08:12:40;102211.91;;;20.55;56.31
18755;BME280;35061;47.664;9.166;2022-07-06T08:15:11;102214.79;;;20.61;56.42
18755;BME280;35061;47.664;9.166;2022-07-06T08:17:39;102216.87;;;20.66;56.21
18755;BME280;35061;47.664;9.166;2022-07-06T08:20:07;102213.19;;;20.71;56.22
18755;BME280;35061;47.664;9.166;2022-07-06T08:22:36;102211.02;;;20.77;56.28
18755;BME280;35061;47.664;9.166;2022-07-06T08:25:05;102211.58;;;20.82;55.84
18755;BME280;35061;47.664;9.166;2022-07-06T08:27:32;102209.45;;;20.88;55.71
18755;BME280;35061;47.664;9.166;2022-07-06T08:30:02;102209.98;;;20.86;53.46
18755;BME280;35061;47.664;9.166;2022-07-06T08:32:30;102208.67;;;20.87;53.79
18755;BME280;35061;47.664;9.166;2022-07-06T08:35:18;102209.95;;;20.92;54.00
18755;BME280;35061;47.664;9.166;2022-07-06T08:37:46;102209.65;;;21.01;53.21
18755;BME280;35061;47.664;9.166;2022-07-06T08:40:14;102202.78;;;21.04;52.58
18755;BME280;35061;47.664;9.166;2022-07-06T08:42:42;102214.39;;;21.16;52.95
18755;BME280;35061;47.664;9.166;2022-07-06T08:45:12;102221.23;;;21.24;53.10
18755;BME280;35061;47.664;9.166;2022-07-06T08:47:41;102215.67;;;21.26;52.07
18755;BME280;35061;47.664;9.166;2022-07-06T08:50:10;102220.12;;;21.33;52.47
18755;BME280;35061;47.664;9.166;2022-07-06T08:52:39;102209.49;;;21.41;52.35
18755;BME280;35061;47.664;9.166;2022-07-06T08:55:08;102213.15;;;21.47;52.40
18755;BME280;35061;47.664;9.166;2022-07-06T08:57:36;102212.86;;;21.51;51.83
18755;BME280;35061;47.664;9.166;2022-07-06T09:00:08;102213.34;;;21.55;51.17
18755;BME280;35061;47.664;9.166;2022-07-06T09:02:36;102215.18;;;21.64;51.05
18755;BME280;35061;47.664;9.166;2022-07-06T09:05:05;102221.00;;;21.70;51.35
18755;BME280;35061;47.664;9.166;2022-07-06T09:07:34;102223.32;;;21.77;51.40
18755;BME280;35061;47.664;9.166;2022-07-06T09:10:22;102219.59;;;21.82;51.36
18755;BME280;35061;47.664;9.166;2022-07-06T09:12:50;102214.75;;;21.91;50.86
18755;BME280;35061;47.664;9.166;2022-07-06T09:15:17;102219.46;;;21.99;51.08
18755;BME280;35061;47.664;9.166;2022-07-06T09:17:45;102210.14;;;22.07;50.94
18755;BME280;35061;47.664;9.166;2022-07-06T09:20:13;102211.94;;;22.10;50.78
18755;BME280;35061;47.664;9.166;2022-07-06T09:22:42;102221.13;;;22.20;50.59
18755;BME280;35061;47.664;9.166;2022-07-06T09:25:13;102214.46;;;22.25;50.28
18755;BME280;35061;47.664;9.166;2022-07-06T09:27:42;102217.34;;;22.30;49.46
18755;BME280;35061;47.664;9.166;2022-07-06T09:30:11;102219.95;;;22.34;49.73
18755;BME280;35061;47.664;9.166;2022-07-06T09:32:46;102219.95;;;22.34;49.67
18755;BME280;35061;47.664;9.166;2022-07-06T09:38:09;102222.60;;;22.38;49.16
18755;BME280;35061;47.664;9.166;2022-07-06T09:40:43;102218.09;;;22.37;48.88
18755;BME280;35061;47.664;9.166;2022-07-06T09:45:45;102226.85;;;22.37;50.05
18755;BME280;35061;47.664;9.166;2022-07-06T09:48:21;102221.26;;;22.39;49.83
18755;BME280;35061;47.664;9.166;2022-07-06T09:50:59;102224.95;;;22.39;49.36
18755;BME280;35061;47.664;9.166;2022-07-06T09:53:27;102220.37;;;22.44;49.66
18755;BME280;35061;47.664;9.166;2022-07-06T09:55:56;102219.82;;;22.51;49.98
18755;BME280;35061;47.664;9.166;2022-07-06T09:58:29;102220.02;;;22.59;50.55
18755;BME280;35061;47.664;9.166;2022-07-06T10:01:27;102232.90;;;22.69;51.03
18755;BME280;35061;47.664;9.166;2022-07-06T10:03:55;102236.80;;;22.78;50.38
18755;BME280;35061;47.664;9.166;2022-07-06T10:06:24;102229.86;;;22.81;50.47
18755;BME280;35061;47.664;9.166;2022-07-06T10:08:54;102229.56;;;22.84;47.72
18755;BME280;35061;47.664;9.166;2022-07-06T10:11:23;102227.18;;;22.83;48.86
18755;BME280;35061;47.664;9.166;2022-07-06T10:13:56;102225.80;;;22.90;49.11
18755;BME280;35061;47.664;9.166;2022-07-06T10:16:25;102224.92;;;22.95;48.27
18755;BME280;35061;47.664;9.166;2022-07-06T10:18:53;102225.09;;;23.03;48.23
18755;BME280;35061;47.664;9.166;2022-07-06T10:21:22;102218.41;;;23.08;48.14
18755;BME280;35061;47.664;9.166;2022-07-06T10:23:51;102214.36;;;23.11;48.24
18755;BME280;35061;47.664;9.166;2022-07-06T10:26:21;102217.76;;;23.15;47.70
18755;BME280;35061;47.664;9.166;2022-07-06T10:28:52;102215.41;;;23.13;47.73
18755;BME280;35061;47.664;9.166;2022-07-06T10:31:20;102211.05;;;23.20;47.34
18755;BME280;35061;47.664;9.166;2022-07-06T10:33:48;102212.89;;;23.23;46.74
18755;BME280;35061;47.664;9.166;2022-07-06T10:36:16;102217.14;;;23.22;45.84
18755;BME280;35061;47.664;9.166;2022-07-06T10:38:49;102213.91;;;23.26;46.39
18755;BME280;35061;47.664;9.166;2022-07-06T10:41:17;102211.81;;;23.26;47.14
18755;BME280;35061;47.664;9.166;2022-07-06T10:43:46;102212.30;;;23.31;47.55
18755;BME280;35061;47.664;9.166;2022-07-06T10:46:17;102220.18;;;23.36;47.96
18755;BME280;35061;47.664;9.166;2022-07-06T10:48:48;102207.40;;;23.39;47.92
18755;BME280;35061;47.664;9.166;2022-07-06T10:51:29;102205.50;;;23.41;47.55
18755;BME280;35061;47.664;9.166;2022-07-06T10:54:04;102210.57;;;23.41;45.94
18755;BME280;35061;47.664;9.166;2022-07-06T10:56:40;102200.53;;;23.36;45.90
18755;BME280;35061;47.664;9.166;2022-07-06T10:59:10;102198.08;;;23.40;46.67
18755;BME280;35061;47.664;9.166;2022-07-06T11:01:39;102201.80;;;23.41;46.40
18755;BME280;35061;47.664;9.166;2022-07-06T11:04:14;102196.96;;;23.44;45.26
18755;BME280;35061;47.664;9.166;2022-07-06T11:06:45;102199.65;;;23.41;45.55
18755;BME280;35061;47.664;9.166;2022-07-06T11:09:14;102185.75;;;23.48;43.87
18755;BME280;35061;47.664;9.166;2022-07-06T11:11:43;102185.65;;;23.53;44.92
18755;BME280;35061;47.664;9.166;2022-07-06T11:14:15;102182.12;;;23.61;44.86
18755;BME280;35061;47.664;9.166;2022-07-06T11:19:17;102174.83;;;23.67;43.26
18755;BME280;35061;47.664;9.166;2022-07-06T11:22:05;102175.05;;;23.69;42.97
18755;BME280;35061;47.664;9.166;2022-07-06T11:24:37;102171.82;;;23.73;39.71
18755;BME280;35061;47.664;9.166;2022-07-06T11:27:06;102167.99;;;23.78;41.46
18755;BME280;35061;47.664;9.166;2022-07-06T11:29:36;102169.59;;;23.79;40.74
18755;BME280;35061;47.664;9.166;2022-07-06T11:32:08;102164.20;;;23.83;40.14
18755;BME280;35061;47.664;9.166;2022-07-06T11:34:40;102162.86;;;23.84;39.76
18755;BME280;35061;47.664;9.166;2022-07-06T11:37:13;102158.25;;;23.89;40.82
18755;BME280;35061;47.664;9.166;2022-07-06T11:39:42;102150.73;;;23.94;37.79
18755;BME280;35061;47.664;9.166;2022-07-06T11:42:15;102148.73;;;24.02;39.21
18755;BME280;35061;47.664;9.166;2022-07-06T11:44:45;102151.80;;;24.10;39.06
18755;BME280;35061;47.664;9.166;2022-07-06T11:47:13;102150.70;;;24.13;39.32
18755;BME280;35061;47.664;9.166;2022-07-06T11:49:50;102146.54;;;24.22;39.29
18755;BME280;35061;47.664;9.166;2022-07-06T11:52:17;102147.78;;;24.27;38.49
18755;BME280;35061;47.664;9.166;2022-07-06T11:54:45;102142.48;;;24.25;38.99
18755;BME280;35061;47.664;9.166;2022-07-06T11:57:13;102141.15;;;24.26;39.37
18755;BME280;35061;47.664;9.166;2022-07-06T11:59:41;102142.39;;;24.31;39.50
18755;BME280;35061;47.664;9.166;2022-07-06T12:02:16;102133.49;;;24.36;39.77
18755;BME280;35061;47.664;9.166;2022-07-06T12:04:45;102129.66;;;24.42;39.43
18755;BME280;35061;47.664;9.166;2022-07-06T12:07:16;102128.78;;;24.47;39.44
18755;BME280;35061;47.664;9.166;2022-07-06T12:09:46;102132.35;;;24.53;39.30
18755;BME280;35061;47.664;9.166;2022-07-06T12:12:14;102132.25;;;24.59;38.64
18755;BME280;35061;47.664;9.166;2022-07-06T12:14:44;102126.53;;;24.66;38.67
18755;BME280;35061;47.664;9.166;2022-07-06T12:17:13;102130.45;;;24.69;38.26
18755;BME280;35061;47.664;9.166;2022-07-06T12:19:43;102122.90;;;24.74;37.99
18755;BME280;35061;47.664;9.166;2022-07-06T12:22:11;102124.73;;;24.77;38.61
18755;BME280;35061;47.664;9.166;2022-07-06T12:24:43;102128.52;;;24.72;37.37
18755;BME280;35061;47.664;9.166;2022-07-06T12:27:14;102122.90;;;24.74;38.45
18755;BME280;35061;47.664;9.166;2022-07-06T12:29:43;102120.12;;;24.82;38.92
18755;BME280;35061;47.664;9.166;2022-07-06T12:32:22;102124.83;;;24.85;38.99
18755;BME280;35061;47.664;9.166;2022-07-06T12:35:07;102117.50;;;24.91;38.82
18755;BME280;35061;47.664;9.166;2022-07-06T12:37:35;102116.36;;;24.94;38.85
18755;BME280;35061;47.664;9.166;2022-07-06T12:40:13;102118.81;;;25.04;39.01
18755;BME280;35061;47.664;9.166;2022-07-06T12:42:47;102116.91;;;25.06;38.51
18755;BME280;35061;47.664;9.166;2022-07-06T12:45:16;102113.84;;;25.12;39.49
18755;BME280;35061;47.664;9.166;2022-07-06T12:48:01;102114.40;;;25.24;39.69
18755;BME280;35061;47.664;9.166;2022-07-06T12:50:35;102117.18;;;25.30;38.50
18755;BME280;35061;47.664;9.166;2022-07-06T12:53:05;102108.05;;;25.33;39.04
18755;BME280;35061;47.664;9.166;2022-07-06T12:55:33;102103.15;;;25.36;38.65
18755;BME280;35061;47.664;9.166;2022-07-06T12:58:01;102107.89;;;25.39;38.70
18755;BME280;35061;47.664;9.166;2022-07-06T13:00:43;102108.12;;;25.41;39.04
18755;BME280;35061;47.664;9.166;2022-07-06T13:03:13;102101.09;;;25.44;38.69
18755;BME280;35061;47.664;9.166;2022-07-06T13:05:49;102093.53;;;25.49;38.29
18755;BME280;35061;47.664;9.166;2022-07-06T13:08:17;102097.49;;;25.52;38.43
18755;BME280;35061;47.664;9.166;2022-07-06T13:10:45;102090.07;;;25.50;38.30